createdAt,value
2018-02-18T00:01:39.174Z,23.80
2018-02-18T00:04:07.652Z,25.90
2018-02-18T00:06:36.034Z,21.67
2018-02-18T00:09:04.011Z,22.70
2018-02-18T00:11:32.407Z,24.57
2018-02-18T00:14:00.642Z,22.43
2018-02-18T00:16:29.616Z,23.40
2018-02-18T00:18:57.976Z,24.17
2018-02-18T00:21:26.351Z,24.30
2018-02-18T00:23:54.707Z,26.07
2018-02-18T00:26:23.095Z,27.97
2018-02-18T00:28:51.497Z,26.67
2018-02-18T00:31:19.863Z,22.80
2018-02-18T00:33:48.715Z,20.87
2018-02-18T00:36:17.069Z,26.47
2018-02-18T00:38:46.209Z,20.43
2018-02-18T00:41:14.567Z,26.40
2018-02-18T00:43:42.959Z,22.77
2018-02-18T00:46:11.314Z,24.20
2018-02-18T00:48:40.432Z,22.33
2018-02-18T00:51:09.449Z,18.10
2018-02-18T00:53:37.858Z,28.10
2018-02-18T00:56:06.998Z,21.43
2018-02-18T00:58:35.356Z,23.10
2018-02-18T01:01:03.857Z,23.10
2018-02-18T01:03:32.244Z,23.73
2018-02-18T01:06:00.614Z,25.30
2018-02-18T01:08:29.118Z,27.60
2018-02-18T01:10:57.626Z,21.70
2018-02-18T01:13:26.006Z,22.03
2018-02-18T01:15:54.543Z,23.67
2018-02-18T01:18:22.907Z,22.80
2018-02-18T01:20:51.272Z,22.43
2018-02-18T01:23:20.484Z,22.40
2018-02-18T01:25:48.877Z,30.13
2018-02-18T01:28:17.239Z,23.73
2018-02-18T01:30:45.599Z,19.03
2018-02-18T01:33:15.003Z,22.47
2018-02-18T01:35:43.363Z,25.13
2018-02-18T01:38:12.491Z,25.37
2018-02-18T01:40:40.528Z,23.13
2018-02-18T01:43:09.629Z,24.40
2018-02-18T01:45:38.934Z,23.70
2018-02-18T01:48:08.118Z,24.47
2018-02-18T01:50:37.737Z,24.20
2018-02-18T01:53:06.863Z,22.80
2018-02-18T01:55:35.573Z,23.10
2018-02-18T01:58:03.931Z,21.90
2018-02-18T02:00:32.339Z,27.17
2018-02-18T02:03:03.758Z,23.87
2018-02-18T02:05:32.113Z,23.83
2018-02-18T02:08:00.512Z,28.63
2018-02-18T02:10:29.240Z,27.97
2018-02-18T02:12:57.699Z,23.00
2018-02-18T02:15:26.058Z,30.07
2018-02-18T02:17:54.425Z,24.53
2018-02-18T02:20:22.455Z,23.30
2018-02-18T02:22:50.816Z,21.20
2018-02-18T02:25:19.195Z,25.00
2018-02-18T02:27:47.556Z,23.60
2018-02-18T02:30:16.034Z,21.47
2018-02-18T02:32:44.402Z,22.10
2018-02-18T02:35:12.766Z,22.30
2018-02-18T02:37:40.949Z,23.30
2018-02-18T02:40:09.317Z,25.03
2018-02-18T02:42:37.700Z,27.43
2018-02-18T02:45:06.039Z,22.73
2018-02-18T02:47:35.181Z,21.87
2018-02-18T02:50:03.732Z,25.53
2018-02-18T02:52:32.964Z,18.90
2018-02-18T02:55:01.533Z,22.47
2018-02-18T02:57:29.894Z,25.83
2018-02-18T02:59:58.235Z,24.83
2018-02-18T03:02:26.607Z,26.67
2018-02-18T03:04:54.979Z,18.83
2018-02-18T03:07:23.339Z,35.67
2018-02-18T03:09:51.862Z,21.40
2018-02-18T03:12:20.981Z,20.33
2018-02-18T03:14:49.349Z,21.43
2018-02-18T03:17:18.486Z,21.40
2018-02-18T03:19:46.860Z,23.53
2018-02-18T03:22:15.304Z,33.13
2018-02-18T03:24:44.539Z,29.30
2018-02-18T03:27:12.890Z,29.07
2018-02-18T03:29:41.246Z,21.93
2018-02-18T03:32:10.362Z,24.90
2018-02-18T03:34:38.735Z,26.40
2018-02-18T03:37:07.118Z,24.70
2018-02-18T03:39:35.495Z,22.90
2018-02-18T03:42:03.895Z,27.60
2018-02-18T03:44:32.260Z,21.20
2018-02-18T03:47:00.741Z,24.90
2018-02-18T03:49:29.098Z,24.53
2018-02-18T03:51:58.225Z,25.00
2018-02-18T03:54:26.582Z,22.67
2018-02-18T03:56:54.951Z,27.93
2018-02-18T03:59:24.051Z,24.43
2018-02-18T04:01:52.241Z,24.10
2018-02-18T04:04:20.601Z,24.63
2018-02-18T04:06:48.983Z,23.63
2018-02-18T04:09:17.330Z,23.17
2018-02-18T04:11:45.723Z,32.07
2018-02-18T04:14:14.835Z,23.33
2018-02-18T04:16:43.210Z,30.87
2018-02-18T04:19:11.608Z,29.27
2018-02-18T04:21:40.031Z,27.20
2018-02-18T04:24:08.377Z,25.57
2018-02-18T04:26:37.370Z,27.33
2018-02-18T04:29:05.745Z,29.30
2018-02-18T04:31:34.104Z,20.57
2018-02-18T04:34:02.525Z,23.73
2018-02-18T04:36:30.880Z,26.00
2018-02-18T04:38:59.251Z,27.80
2018-02-18T04:41:27.614Z,22.80
2018-02-18T04:43:55.996Z,27.23
2018-02-18T04:46:24.347Z,24.90
2018-02-18T04:48:53.493Z,29.83
2018-02-18T04:51:22.077Z,24.27
2018-02-18T04:53:50.452Z,30.73
2018-02-18T04:56:18.795Z,26.47
2018-02-18T04:58:47.154Z,28.33
2018-02-18T05:01:16.268Z,29.23
2018-02-18T05:03:44.857Z,26.87
2018-02-18T05:06:13.279Z,27.63
2018-02-18T05:08:41.646Z,30.17
2018-02-18T05:11:10.009Z,30.43
2018-02-18T05:13:38.366Z,33.63
2018-02-18T05:16:06.850Z,28.37
2018-02-18T05:18:35.206Z,31.97
2018-02-18T05:21:04.353Z,29.80
2018-02-18T05:23:32.893Z,30.53
2018-02-18T05:26:02.068Z,32.13
2018-02-18T05:28:30.518Z,28.43
2018-02-18T05:30:58.896Z,34.50
2018-02-18T05:33:27.273Z,28.93
2018-02-18T05:35:55.639Z,29.87
2018-02-18T05:38:23.975Z,33.00
2018-02-18T05:40:53.105Z,26.90
2018-02-18T05:43:21.517Z,27.67
2018-02-18T05:45:49.880Z,28.83
2018-02-18T05:48:18.234Z,32.80
2018-02-18T05:50:46.619Z,33.10
2018-02-18T05:53:14.967Z,28.10
2018-02-18T05:55:43.331Z,29.07
2018-02-18T05:58:12.463Z,36.47
2018-02-18T06:00:40.821Z,31.47
2018-02-18T06:03:10.593Z,31.10
2018-02-18T06:05:39.054Z,31.07
2018-02-18T06:08:07.430Z,27.80
2018-02-18T06:10:35.789Z,31.27
2018-02-18T06:13:04.624Z,30.60
2018-02-18T06:15:32.986Z,31.53
2018-02-18T06:18:01.365Z,29.37
2018-02-18T06:20:29.721Z,31.27
2018-02-18T06:22:58.092Z,31.27
2018-02-18T06:25:26.435Z,28.83
2018-02-18T06:27:55.688Z,33.63
2018-02-18T06:30:24.279Z,32.83
2018-02-18T06:32:52.779Z,29.70
2018-02-18T06:35:21.163Z,32.07
2018-02-18T06:37:50.308Z,36.27
2018-02-18T06:40:18.651Z,39.83
2018-02-18T06:42:47.787Z,28.93
2018-02-18T06:45:16.159Z,33.90
2018-02-18T06:47:44.532Z,36.33
2018-02-18T06:50:12.891Z,29.13
2018-02-18T06:52:41.244Z,40.13
2018-02-18T06:55:09.616Z,33.13
2018-02-18T06:57:38.822Z,36.47
2018-02-18T07:00:07.963Z,33.00
2018-02-18T07:02:36.541Z,35.43
2018-02-18T07:05:04.577Z,32.53
2018-02-18T07:07:33.988Z,34.77
2018-02-18T07:10:02.351Z,30.97
2018-02-18T07:12:31.488Z,36.13
2018-02-18T07:14:59.870Z,32.67
2018-02-18T07:17:28.987Z,34.40
2018-02-18T07:19:57.351Z,33.13
2018-02-18T07:22:25.715Z,35.30
2018-02-18T07:24:54.085Z,35.70
2018-02-18T07:27:22.592Z,37.50
2018-02-18T07:29:50.958Z,39.57
2018-02-18T07:32:19.470Z,30.97
2018-02-18T07:34:48.317Z,50.30
2018-02-18T07:37:16.830Z,33.57
2018-02-18T07:39:45.182Z,38.13
2018-02-18T07:42:13.596Z,30.00
2018-02-18T07:44:42.041Z,33.90
2018-02-18T07:47:10.543Z,37.30
2018-02-18T07:49:38.902Z,34.80
2018-02-18T07:52:07.271Z,36.70
2018-02-18T07:54:35.749Z,37.93
2018-02-18T07:57:04.096Z,42.43
2018-02-18T07:59:33.238Z,37.77
2018-02-18T08:02:01.592Z,41.20
2018-02-18T08:04:29.967Z,39.13
2018-02-18T08:06:58.428Z,38.87
2018-02-18T08:09:27.251Z,39.33
2018-02-18T08:11:55.639Z,43.43
2018-02-18T08:14:24.166Z,37.23
2018-02-18T08:16:52.517Z,38.53
2018-02-18T08:19:21.024Z,36.17
2018-02-18T08:21:49.395Z,41.70
2018-02-18T08:24:17.772Z,40.73
2018-02-18T08:26:46.155Z,40.93
2018-02-18T08:29:14.717Z,39.30
2018-02-18T08:31:43.100Z,36.30
2018-02-18T08:34:11.500Z,37.20
2018-02-18T08:36:39.882Z,38.73
2018-02-18T08:39:10.030Z,38.80
2018-02-18T08:41:38.565Z,45.17
2018-02-18T08:44:06.971Z,38.37
2018-02-18T08:46:36.323Z,37.80
2018-02-18T08:49:04.708Z,36.00
2018-02-18T08:51:33.060Z,38.17
2018-02-18T08:54:01.457Z,36.77
2018-02-18T08:56:29.831Z,36.17
2018-02-18T08:58:58.231Z,43.03
2018-02-18T09:01:26.763Z,41.97
2018-02-18T09:03:55.171Z,38.13
2018-02-18T09:06:23.534Z,42.57
2018-02-18T09:08:51.892Z,37.50
2018-02-18T09:11:20.277Z,44.37
2018-02-18T09:13:49.839Z,36.30
2018-02-18T09:16:18.796Z,37.73
2018-02-18T09:18:47.161Z,43.70
2018-02-18T09:21:15.547Z,44.03
2018-02-18T09:23:43.925Z,42.30
2018-02-18T09:26:12.496Z,37.37
2018-02-18T09:28:40.878Z,39.30
2018-02-18T09:31:09.273Z,42.83
2018-02-18T09:33:37.640Z,40.67
2018-02-18T09:36:06.008Z,41.90
2018-02-18T09:38:34.381Z,43.43
2018-02-18T09:41:02.916Z,43.03
2018-02-18T09:43:31.296Z,34.50
2018-02-18T09:45:59.725Z,43.73
2018-02-18T09:48:28.287Z,42.30
2018-02-18T09:50:57.390Z,38.63
2018-02-18T09:53:25.772Z,37.67
2018-02-18T09:55:54.140Z,40.30
2018-02-18T09:58:22.693Z,46.33
2018-02-18T10:00:51.061Z,35.67
2018-02-18T10:03:19.435Z,44.47
2018-02-18T10:05:47.815Z,42.70
2018-02-18T10:08:16.195Z,34.03
2018-02-18T10:10:44.638Z,49.70
2018-02-18T10:13:13.024Z,42.57
2018-02-18T10:15:41.376Z,47.13
2018-02-18T10:18:09.905Z,39.53
2018-02-18T10:20:38.465Z,39.80
2018-02-18T10:23:06.837Z,42.50
2018-02-18T10:25:35.233Z,39.43
2018-02-18T10:28:03.916Z,42.50
2018-02-18T10:30:32.317Z,42.53
2018-02-18T10:33:00.700Z,40.97
2018-02-18T10:35:29.173Z,40.60
2018-02-18T10:37:57.544Z,41.13
2018-02-18T10:40:25.941Z,40.67
2018-02-18T10:42:55.711Z,42.50
2018-02-18T10:45:24.259Z,44.70
2018-02-18T10:47:53.409Z,42.93
2018-02-18T10:50:21.803Z,39.10
2018-02-18T10:52:50.232Z,42.33
2018-02-18T10:55:18.765Z,36.17
2018-02-18T10:57:47.227Z,44.83
2018-02-18T11:00:15.591Z,41.07
2018-02-18T11:02:43.963Z,41.13
2018-02-18T11:05:12.334Z,43.77
2018-02-18T11:07:40.948Z,36.23
2018-02-18T11:10:09.313Z,43.73
2018-02-18T11:12:37.686Z,43.63
2018-02-18T11:15:06.120Z,45.63
2018-02-18T11:17:34.426Z,50.47
2018-02-18T11:20:02.780Z,47.40
2018-02-18T11:22:32.055Z,41.70
2018-02-18T11:25:00.638Z,41.50
2018-02-18T11:27:29.806Z,40.27
2018-02-18T11:29:58.210Z,42.13
2018-02-18T11:32:26.734Z,39.07
2018-02-18T11:34:55.099Z,38.83
2018-02-18T11:37:23.520Z,45.57
2018-02-18T11:39:51.915Z,41.13
2018-02-18T11:42:20.369Z,39.67
2018-02-18T11:44:49.008Z,43.27
2018-02-18T11:47:17.458Z,37.67
2018-02-18T11:49:45.865Z,45.83
2018-02-18T11:52:14.241Z,37.00
2018-02-18T11:54:43.567Z,39.53
2018-02-18T11:57:11.957Z,41.63
2018-02-18T11:59:40.521Z,44.67
2018-02-18T12:02:09.226Z,42.60
2018-02-18T12:04:37.627Z,40.03
2018-02-18T12:07:05.994Z,34.10
2018-02-18T12:09:34.389Z,34.90
2018-02-18T12:12:02.755Z,37.90
2018-02-18T12:14:31.361Z,36.30
2018-02-18T12:16:59.914Z,39.20
2018-02-18T12:19:29.212Z,43.60
2018-02-18T12:21:57.572Z,40.97
2018-02-18T12:24:25.976Z,37.30
2018-02-18T12:26:54.585Z,42.43
2018-02-18T12:29:22.978Z,36.00
2018-02-18T12:31:52.148Z,38.47
2018-02-18T12:34:21.186Z,38.43
2018-02-18T12:36:49.262Z,39.83
2018-02-18T12:39:17.640Z,39.60
2018-02-18T12:41:46.285Z,36.03
2018-02-18T12:44:15.415Z,40.10
2018-02-18T12:46:43.817Z,39.60
2018-02-18T12:49:12.234Z,42.30
2018-02-18T12:51:40.620Z,35.20
2018-02-18T12:54:09.150Z,37.93
2018-02-18T12:56:37.686Z,36.83
2018-02-18T12:59:06.185Z,35.57
2018-02-18T13:01:35.361Z,33.80
2018-02-18T13:04:03.824Z,35.93
2018-02-18T13:06:32.229Z,34.27
2018-02-18T13:09:00.659Z,41.53
2018-02-18T13:11:29.182Z,38.77
2018-02-18T13:13:57.578Z,33.27
2018-02-18T13:16:26.792Z,39.47
2018-02-18T13:18:55.189Z,34.37
2018-02-18T13:21:23.608Z,35.23
2018-02-18T13:23:52.094Z,41.17
2018-02-18T13:26:20.558Z,38.20
2018-02-18T13:28:48.970Z,36.80
2018-02-18T13:31:18.113Z,34.80
2018-02-18T13:33:46.515Z,37.30
2018-02-18T13:36:14.870Z,33.80
2018-02-18T13:38:43.310Z,35.00
2018-02-18T13:41:12.737Z,39.40
2018-02-18T13:43:41.322Z,36.67
2018-02-18T13:46:09.714Z,33.30
2018-02-18T13:48:38.120Z,35.07
2018-02-18T13:51:06.644Z,32.70
2018-02-18T13:53:35.011Z,36.30
2018-02-18T13:56:04.293Z,35.20
2018-02-18T13:58:32.666Z,36.90
2018-02-18T14:01:01.064Z,40.97
2018-02-18T14:03:30.193Z,32.83
2018-02-18T14:05:59.177Z,33.80
2018-02-18T14:08:27.565Z,28.50
2018-02-18T14:10:56.143Z,35.23
2018-02-18T14:13:24.745Z,37.20
2018-02-18T14:15:53.129Z,29.80
2018-02-18T14:18:21.638Z,30.67
2018-02-18T14:20:50.812Z,33.47
2018-02-18T14:23:19.211Z,29.50
2018-02-18T14:25:47.842Z,28.90
2018-02-18T14:28:16.222Z,26.50
2018-02-18T14:30:44.592Z,35.27
2018-02-18T14:33:13.038Z,28.73
2018-02-18T14:35:42.263Z,24.73
2018-02-18T14:38:10.657Z,27.77
2018-02-18T14:40:39.060Z,28.17
2018-02-18T14:43:18.758Z,21.43
2018-02-18T14:45:59.156Z,26.93
2018-02-18T14:48:38.789Z,22.30
2018-02-18T14:51:18.283Z,27.40
2018-02-18T14:53:58.725Z,22.93
2018-02-18T14:59:23.871Z,24.97
2018-02-18T15:01:53.217Z,29.37
2018-02-18T15:04:21.612Z,25.60
2018-02-18T15:06:49.997Z,25.83
2018-02-18T15:09:18.512Z,21.77
2018-02-18T15:11:47.801Z,19.90
2018-02-18T15:14:16.954Z,24.50
2018-02-18T15:16:45.336Z,29.63
2018-02-18T15:19:13.712Z,19.97
2018-02-18T15:21:42.212Z,21.97
2018-02-18T15:24:10.808Z,18.87
2018-02-18T15:26:39.175Z,19.87
2018-02-18T15:29:07.555Z,18.37
2018-02-18T15:31:36.012Z,19.23
2018-02-18T15:34:04.378Z,22.43
2018-02-18T15:36:32.884Z,21.47
2018-02-18T15:39:01.260Z,21.87
2018-02-18T15:41:29.644Z,21.27
2018-02-18T15:43:58.024Z,18.10
2018-02-18T15:46:26.516Z,16.10
2018-02-18T15:48:54.882Z,19.50
2018-02-18T15:51:23.255Z,15.37
2018-02-18T15:53:51.644Z,16.30
2018-02-18T15:56:20.232Z,15.90
2018-02-18T15:58:49.559Z,16.03
2018-02-18T16:01:18.748Z,18.63
2018-02-18T16:03:47.897Z,17.77
2018-02-18T16:06:16.293Z,18.67
2018-02-18T16:08:44.905Z,14.30
2018-02-18T16:11:14.174Z,17.60
2018-02-18T16:13:42.551Z,17.60
2018-02-18T16:16:10.931Z,17.40
2018-02-18T16:18:39.450Z,18.23
2018-02-18T16:21:07.831Z,15.53
2018-02-18T16:23:36.357Z,20.93
2018-02-18T16:26:05.194Z,26.77
2018-02-18T16:28:33.776Z,19.67
2018-02-18T16:31:02.923Z,19.57
2018-02-18T16:33:31.326Z,19.53
2018-02-18T16:35:59.688Z,23.57
2018-02-18T16:38:28.101Z,24.40
2018-02-18T16:40:56.493Z,21.43
2018-02-18T16:43:25.725Z,18.80
2018-02-18T16:45:54.793Z,19.40
2018-02-18T16:48:23.194Z,20.43
2018-02-18T16:50:52.561Z,25.07
2018-02-18T16:53:21.004Z,24.13
2018-02-18T16:55:51.400Z,23.17
2018-02-18T16:58:19.840Z,24.03
2018-02-18T17:00:48.355Z,24.97
2018-02-18T17:03:16.779Z,23.20
2018-02-18T17:05:45.336Z,24.40
2018-02-18T17:08:13.857Z,26.67
2018-02-18T17:10:42.983Z,24.30
2018-02-18T17:13:11.370Z,24.57
2018-02-18T17:15:39.773Z,26.90
2018-02-18T17:18:08.197Z,24.13
2018-02-18T17:20:37.386Z,25.97
2018-02-18T17:23:06.613Z,20.53
2018-02-18T17:25:34.995Z,21.90
2018-02-18T17:28:03.675Z,26.27
2018-02-18T17:30:32.224Z,24.60
2018-02-18T17:33:01.401Z,23.20
2018-02-18T17:35:30.095Z,25.80
2018-02-18T17:37:58.147Z,26.63
2018-02-18T17:40:26.708Z,24.20
2018-02-18T17:42:55.107Z,24.20
2018-02-18T17:45:23.560Z,23.17
2018-02-18T17:47:52.039Z,24.47
2018-02-18T17:50:20.574Z,22.90
2018-02-18T17:52:49.071Z,23.20
2018-02-18T17:55:18.504Z,20.77
2018-02-18T17:57:46.881Z,25.50
2018-02-18T18:00:15.420Z,29.13
2018-02-18T18:02:44.540Z,22.63
2018-02-18T18:05:13.694Z,29.73
2018-02-18T18:07:42.115Z,23.60
2018-02-18T18:10:10.776Z,28.00
2018-02-18T18:12:39.160Z,22.90
2018-02-18T18:15:08.334Z,29.07
2018-02-18T18:17:36.885Z,26.70
2018-02-18T18:20:05.278Z,24.33
2018-02-18T18:22:33.469Z,24.03
2018-02-18T18:25:01.820Z,27.47
2018-02-18T18:27:30.466Z,28.93
2018-02-18T18:29:59.609Z,24.20
2018-02-18T18:32:28.006Z,24.77
2018-02-18T18:34:56.396Z,28.30
2018-02-18T18:37:24.776Z,29.17
2018-02-18T18:39:53.145Z,31.47
2018-02-18T18:42:21.548Z,29.23
2018-02-18T18:44:50.760Z,34.47
2018-02-18T18:47:19.259Z,29.27
2018-02-18T18:49:47.619Z,32.43
2018-02-18T18:52:15.998Z,31.67
2018-02-18T18:54:44.513Z,27.53
2018-02-18T18:57:12.937Z,28.17
2018-02-18T18:59:42.087Z,28.03
2018-02-18T19:02:10.459Z,30.10
2018-02-18T19:04:39.646Z,30.70
2018-02-18T19:07:08.000Z,27.60
2018-02-18T19:09:36.613Z,31.40
2018-02-18T19:12:04.986Z,28.20
2018-02-18T19:14:33.782Z,32.30
2018-02-18T19:17:02.157Z,33.63
2018-02-18T19:19:30.575Z,34.57
2018-02-18T19:21:59.016Z,35.13
2018-02-18T19:24:27.396Z,32.33
2018-02-18T19:26:55.772Z,33.83
2018-02-18T19:29:24.141Z,35.10
2018-02-18T19:31:52.510Z,29.83
2018-02-18T19:34:20.866Z,34.07
2018-02-18T19:36:50.016Z,38.90
2018-02-18T19:39:18.408Z,28.33
2018-02-18T19:41:46.913Z,30.10
2018-02-18T19:44:16.297Z,32.33
2018-02-18T19:46:44.735Z,36.70
2018-02-18T19:49:13.724Z,32.80
2018-02-18T19:51:42.351Z,31.30
2018-02-18T19:54:10.968Z,33.43
2018-02-18T19:56:39.582Z,31.17
2018-02-18T19:59:08.360Z,34.53
2018-02-18T20:01:36.927Z,37.60
2018-02-18T20:04:05.344Z,38.30
2018-02-18T20:06:33.829Z,34.90
2018-02-18T20:09:02.528Z,33.03
2018-02-18T20:11:31.789Z,38.23
2018-02-18T20:14:00.187Z,36.50
2018-02-18T20:16:28.766Z,31.63
2018-02-18T20:18:57.383Z,37.33
2018-02-18T20:21:26.133Z,40.10
2018-02-18T20:23:54.561Z,35.57
2018-02-18T20:26:22.947Z,43.97
2018-02-18T20:28:51.720Z,37.80
2018-02-18T20:31:21.312Z,42.10
2018-02-18T20:33:49.931Z,39.90
2018-02-18T20:36:19.162Z,37.60
2018-02-18T20:38:47.949Z,34.10
2018-02-18T20:41:16.370Z,49.77
2018-02-18T20:43:44.746Z,38.00
2018-02-18T20:46:13.387Z,38.57
2018-02-18T20:48:41.940Z,40.57
2018-02-18T20:51:11.072Z,41.53
2018-02-18T20:53:39.569Z,37.70
2018-02-18T20:56:08.300Z,40.10
2018-02-18T20:58:37.465Z,42.67
2018-02-18T21:01:05.915Z,42.07
2018-02-18T21:03:34.482Z,41.20
2018-02-18T21:06:02.929Z,40.13
2018-02-18T21:08:32.214Z,35.30
2018-02-18T21:11:00.695Z,35.10
2018-02-18T21:13:29.925Z,41.17
2018-02-18T21:15:58.448Z,43.20
2018-02-18T21:18:26.938Z,41.80
2018-02-18T21:20:55.490Z,37.23
2018-02-18T21:23:23.858Z,38.07
2018-02-18T21:25:52.281Z,42.87
2018-02-18T21:28:20.862Z,38.30
2018-02-18T21:30:49.468Z,40.53
2018-02-18T21:33:18.617Z,37.90
2018-02-18T21:35:47.204Z,44.93
2018-02-18T21:38:15.747Z,36.70
2018-02-18T21:40:45.627Z,38.23
2018-02-18T21:43:14.243Z,37.70
2018-02-18T21:45:43.554Z,42.43
2018-02-18T21:48:12.038Z,45.50
2018-02-18T21:50:40.418Z,49.90
2018-02-18T21:53:08.800Z,40.03
2018-02-18T21:55:37.336Z,40.87
2018-02-18T21:58:05.879Z,42.10
2018-02-18T22:00:35.108Z,39.90
2018-02-18T22:03:03.690Z,40.53
2018-02-18T22:05:32.238Z,44.77
2018-02-18T22:08:00.768Z,39.80
2018-02-18T22:10:29.425Z,45.13
2018-02-18T22:12:57.840Z,44.73
2018-02-18T22:15:26.996Z,36.57
2018-02-18T22:17:55.519Z,44.60
2018-02-18T22:20:24.667Z,40.10
2018-02-18T22:22:53.328Z,43.00
2018-02-18T22:25:21.886Z,41.67
2018-02-18T22:27:50.415Z,42.90
2018-02-18T22:30:18.990Z,40.13
2018-02-18T22:32:47.416Z,45.07
2018-02-18T22:35:16.597Z,43.13
2018-02-18T22:37:45.606Z,46.77
2018-02-18T22:40:14.195Z,41.03
2018-02-18T22:42:43.386Z,42.17
2018-02-18T22:45:12.680Z,42.17
2018-02-18T22:47:41.103Z,43.73
2018-02-18T22:50:09.664Z,38.27
2018-02-18T22:52:38.074Z,41.03
2018-02-18T22:55:06.909Z,44.30
2018-02-18T22:57:35.304Z,38.67
2018-02-18T23:00:03.572Z,42.80
2018-02-18T23:02:32.736Z,41.10
2018-02-18T23:05:06.930Z,43.43
2018-02-18T23:07:35.297Z,45.83
2018-02-18T23:10:03.330Z,50.77
2018-02-18T23:12:32.529Z,41.33
2018-02-18T23:15:01.685Z,38.60
2018-02-18T23:17:30.315Z,39.33
2018-02-18T23:19:59.527Z,46.80
2018-02-18T23:22:28.008Z,40.43
2018-02-18T23:24:56.900Z,46.50
2018-02-18T23:27:25.303Z,44.73
2018-02-18T23:29:53.740Z,39.80
2018-02-18T23:32:23.035Z,40.10
2018-02-18T23:34:52.192Z,47.07
2018-02-18T23:37:20.940Z,48.50
2018-02-18T23:39:49.412Z,41.10
2018-02-18T23:42:18.601Z,37.80
2018-02-18T23:44:47.908Z,40.50
2018-02-18T23:47:17.136Z,40.40
2018-02-18T23:49:45.722Z,40.50
2018-02-18T23:52:14.224Z,44.60
2018-02-18T23:54:42.749Z,51.33
2018-02-18T23:57:12.056Z,40.57
2018-02-18T23:59:40.675Z,42.33
